Time;durP1;ratioP1;P1;durP2;ratioP2;P2;SDS_P1;SDS_P2;PMS_P1;PMS_P2;Temp;Humidity;BMP_temperature;BMP_pressure;BME280_temperature;BME280_humidity;BME280_pressure;Samples;Min_cycle;Max_cycle;Signal;HPM_P1;HPM_P2
2023/07/23 00:01:06;;;;;;;9.67;5.17;;;;;;;;;;5016010;28;20220;-68
2023/07/23 00:03:32;;;;;;;10.70;5.13;;;;;;;;;;5034214;28;20179;-68
2023/07/23 00:05:58;;;;;;;11.80;5.20;;;;;;;;;;5015708;28;20187;-69
2023/07/23 00:08:25;;;;;;;9.40;5.30;;;;;;;;;;5033112;28;20270;-68
2023/07/23 00:10:56;;;;;;;9.97;4.50;;;;;;;;;;5033237;28;20175;-69
2023/07/23 00:13:22;;;;;;;8.23;5.10;;;;;;;;;;5015503;28;20171;-68
2023/07/23 00:15:48;;;;;;;8.57;5.07;;;;;;;;;;5047862;22;20344;-63
2023/07/23 00:18:14;;;;;;;10.73;5.43;;;;;;;;;;5015524;28;20176;-63
2023/07/23 00:20:40;;;;;;;12.97;5.40;;;;;;;;;;5033400;28;20203;-63
2023/07/23 00:23:06;;;;;;;9.07;5.50;;;;;;;;;;5033162;28;20211;-64
2023/07/23 00:25:32;;;;;;;9.97;5.23;;;;;;;;;;5035199;28;20249;-64
2023/07/23 00:27:57;;;;;;;12.17;5.20;;;;;;;;;;5019360;28;20183;-62
2023/07/23 00:30:23;;;;;;;15.00;6.47;;;;;;;;;;5019233;28;20249;-63
2023/07/23 00:32:49;;;;;;;13.67;6.27;;;;;;;;;;5019110;28;20245;-64
2023/07/23 00:35:15;;;;;;;10.03;6.03;;;;;;;;;;5036790;28;20226;-63
2023/07/23 00:37:41;;;;;;;10.80;5.60;;;;;;;;;;5037021;28;20186;-63
2023/07/23 00:40:08;;;;;;;12.97;6.10;;;;;;;;;;5037022;28;20226;-63
2023/07/23 00:42:34;;;;;;;10.47;5.63;;;;;;;;;;5036865;28;20175;-63
2023/07/23 00:45:00;;;;;;;8.40;5.20;;;;;;;;;;5018927;28;20668;-63
2023/07/23 00:47:26;;;;;;;8.17;4.87;;;;;;;;;;5018978;28;20324;-63
2023/07/23 00:49:52;;;;;;;5.97;4.80;;;;;;;;;;5036980;28;20261;-63
2023/07/23 00:52:18;;;;;;;9.17;5.50;;;;;;;;;;5018910;28;20191;-64
2023/07/23 00:54:44;;;;;;;6.77;4.90;;;;;;;;;;5036729;28;20667;-63
2023/07/23 00:57:11;;;;;;;9.93;5.70;;;;;;;;;;5036611;28;20182;-63
2023/07/23 00:59:40;;;;;;;8.33;4.53;;;;;;;;;;5037173;28;20206;-65
2023/07/23 01:02:06;;;;;;;8.10;5.33;;;;;;;;;;5036548;28;20254;-63
2023/07/23 01:04:33;;;;;;;12.97;6.67;;;;;;;;;;5036601;28;20180;-63
2023/07/23 01:07:00;;;;;;;15.90;5.83;;;;;;;;;;5036583;28;20195;-63
2023/07/23 01:09:27;;;;;;;16.83;8.47;;;;;;;;;;5038077;28;20632;-64
2023/07/23 01:11:53;;;;;;;13.10;6.50;;;;;;;;;;5036319;28;20179;-63
2023/07/23 01:14:19;;;;;;;15.07;7.83;;;;;;;;;;5036240;28;20194;-63
2023/07/23 01:16:45;;;;;;;22.43;9.90;;;;;;;;;;5018244;28;20210;-63
2023/07/23 01:19:12;;;;;;;37.73;14.17;;;;;;;;;;5036295;28;20175;-63
2023/07/23 01:21:39;;;;;;;54.37;18.13;;;;;;;;;;5018644;28;20614;-64
2023/07/23 01:24:05;;;;;;;47.43;15.70;;;;;;;;;;5035988;28;20175;-63
2023/07/23 01:26:31;;;;;;;42.70;15.23;;;;;;;;;;5018091;28;20191;-63
2023/07/23 01:28:57;;;;;;;48.33;14.70;;;;;;;;;;5018200;28;20706;-63
2023/07/23 01:31:23;;;;;;;35.53;12.93;;;;;;;;;;5035879;28;20253;-64
2023/07/23 01:33:49;;;;;;;29.20;11.73;;;;;;;;;;5018115;28;20644;-63
2023/07/23 01:36:15;;;;;;;22.87;10.53;;;;;;;;;;5017928;28;20257;-64
2023/07/23 01:38:41;;;;;;;22.20;9.67;;;;;;;;;;5018179;28;20182;-63
2023/07/23 01:41:07;;;;;;;17.67;9.93;;;;;;;;;;5035717;28;20286;-63
2023/07/23 01:43:33;;;;;;;14.17;6.60;;;;;;;;;;5036564;28;20186;-63
2023/07/23 01:45:59;;;;;;;17.97;9.03;;;;;;;;;;5035719;28;20199;-63
2023/07/23 01:48:25;;;;;;;16.37;8.43;;;;;;;;;;5018139;28;20192;-63
2023/07/23 01:50:51;;;;;;;13.43;6.67;;;;;;;;;;5017982;28;20175;-64
2023/07/23 01:53:17;;;;;;;11.73;6.43;;;;;;;;;;5017948;28;20285;-64
2023/07/23 01:55:43;;;;;;;14.37;6.87;;;;;;;;;;5035519;28;20211;-63
2023/07/23 01:58:09;;;;;;;15.03;6.90;;;;;;;;;;5035626;28;20624;-63
2023/07/23 02:00:35;;;;;;;11.87;7.23;;;;;;;;;;5036211;28;20602;-64
2023/07/23 02:03:01;;;;;;;10.37;6.20;;;;;;;;;;5018618;28;20633;-63
2023/07/23 02:05:27;;;;;;;12.73;7.67;;;;;;;;;;5018266;28;20203;-63
2023/07/23 02:07:53;;;;;;;8.30;5.63;;;;;;;;;;5017747;28;20187;-63
2023/07/23 02:10:20;;;;;;;10.00;5.63;;;;;;;;;;5035446;28;20187;-63
2023/07/23 02:12:46;;;;;;;14.57;5.87;;;;;;;;;;5035473;28;20183;-63
2023/07/23 02:15:13;;;;;;;13.37;5.93;;;;;;;;;;5035288;28;20210;-64
2023/07/23 02:17:39;;;;;;;10.77;6.33;;;;;;;;;;5017378;28;20211;-63
2023/07/23 02:20:06;;;;;;;10.63;5.87;;;;;;;;;;5035389;28;20682;-63
2023/07/23 02:22:32;;;;;;;13.10;6.07;;;;;;;;;;5035400;28;20547;-63
2023/07/23 02:24:58;;;;;;;18.03;6.97;;;;;;;;;;5017021;28;20210;-63
2023/07/23 02:27:24;;;;;;;9.07;6.13;;;;;;;;;;5035074;28;20175;-63
2023/07/23 02:29:50;;;;;;;8.70;5.63;;;;;;;;;;5034676;28;20179;-63
2023/07/23 02:32:16;;;;;;;11.43;6.20;;;;;;;;;;5034799;28;20209;-63
2023/07/23 02:34:42;;;;;;;13.67;6.73;;;;;;;;;;5034632;28;20183;-63
2023/07/23 02:37:08;;;;;;;15.30;7.40;;;;;;;;;;5034659;28;20678;-62
2023/07/23 02:39:34;;;;;;;12.27;7.23;;;;;;;;;;5034769;28;20203;-63
2023/07/23 02:42:00;;;;;;;8.63;6.13;;;;;;;;;;5016812;28;20186;-63
2023/07/23 02:44:26;;;;;;;7.63;5.47;;;;;;;;;;5034620;28;20175;-63
2023/07/23 02:46:52;;;;;;;9.57;6.30;;;;;;;;;;5016485;28;20293;-64
2023/07/23 02:49:18;;;;;;;10.33;5.67;;;;;;;;;;5034515;28;20183;-63
2023/07/23 02:51:44;;;;;;;9.87;6.70;;;;;;;;;;5034342;28;20187;-64
2023/07/23 02:54:10;;;;;;;13.90;7.20;;;;;;;;;;5016519;28;20194;-64
2023/07/23 02:56:36;;;;;;;14.00;6.43;;;;;;;;;;5016592;28;20241;-63
2023/07/23 02:59:05;;;;;;;15.50;7.40;;;;;;;;;;5016563;28;20269;-64
2023/07/23 03:01:31;;;;;;;9.67;6.33;;;;;;;;;;5034617;28;20210;-65
2023/07/23 03:03:57;;;;;;;9.40;6.53;;;;;;;;;;5034291;28;20679;-64
2023/07/23 03:06:23;;;;;;;8.37;6.20;;;;;;;;;;5034147;28;20282;-64
2023/07/23 03:08:49;;;;;;;11.97;6.53;;;;;;;;;;5034030;28;20215;-63
2023/07/23 03:11:15;;;;;;;12.07;7.30;;;;;;;;;;5034312;28;20242;-64
2023/07/23 03:13:41;;;;;;;10.77;6.80;;;;;;;;;;5034524;28;20179;-64
2023/07/23 03:16:07;;;;;;;12.20;6.87;;;;;;;;;;5034747;28;20229;-63
2023/07/23 03:18:33;;;;;;;11.43;6.87;;;;;;;;;;5034384;28;20265;-64
2023/07/23 03:20:59;;;;;;;12.13;6.93;;;;;;;;;;5033761;28;20203;-63
2023/07/23 03:23:26;;;;;;;10.67;6.80;;;;;;;;;;5034033;28;20179;-63
2023/07/23 03:25:52;;;;;;;8.90;6.50;;;;;;;;;;5033757;28;20193;-63
2023/07/23 03:28:18;;;;;;;15.00;6.73;;;;;;;;;;5034091;28;20179;-65
2023/07/23 03:30:44;;;;;;;9.03;6.63;;;;;;;;;;5015920;28;20177;-64
2023/07/23 03:33:09;;;;;;;8.77;6.63;;;;;;;;;;5016043;28;20190;-68
2023/07/23 03:35:35;;;;;;;7.20;5.53;;;;;;;;;;5033835;28;20293;-64
2023/07/23 03:38:01;;;;;;;8.73;6.33;;;;;;;;;;5033716;28;20186;-64
2023/07/23 03:40:27;;;;;;;10.70;6.30;;;;;;;;;;5015678;28;20752;-66
2023/07/23 03:42:53;;;;;;;8.67;6.50;;;;;;;;;;5034101;28;20637;-66
2023/07/23 03:45:19;;;;;;;8.53;5.40;;;;;;;;;;5016070;28;20207;-66
2023/07/23 03:47:45;;;;;;;7.40;5.03;;;;;;;;;;5016223;28;20229;-65
2023/07/23 03:50:11;;;;;;;6.13;5.30;;;;;;;;;;5034022;28;20179;-64
2023/07/23 03:52:37;;;;;;;7.03;5.03;;;;;;;;;;5033373;28;20703;-64
2023/07/23 03:55:03;;;;;;;9.27;5.33;;;;;;;;;;5033603;28;20199;-66
2023/07/23 03:57:29;;;;;;;6.20;5.30;;;;;;;;;;5034051;28;20194;-62
2023/07/23 03:59:55;;;;;;;6.97;5.30;;;;;;;;;;5014522;28;20565;-63
2023/07/23 04:02:21;;;;;;;8.23;5.43;;;;;;;;;;5033162;28;20557;-63
2023/07/23 04:04:47;;;;;;;6.67;5.10;;;;;;;;;;5033538;28;20582;-65
2023/07/23 04:07:13;;;;;;;7.57;5.07;;;;;;;;;;5033144;28;20179;-63
2023/07/23 04:09:39;;;;;;;7.30;5.57;;;;;;;;;;5033434;28;20564;-63
2023/07/23 04:12:05;;;;;;;6.13;5.40;;;;;;;;;;5033455;28;20175;-63
2023/07/23 04:14:32;;;;;;;6.70;5.57;;;;;;;;;;5033052;28;20184;-63
2023/07/23 04:16:58;;;;;;;8.93;6.00;;;;;;;;;;5033092;28;20215;-62
2023/07/23 04:19:24;;;;;;;8.50;5.40;;;;;;;;;;5015248;28;20187;-63
2023/07/23 04:21:50;;;;;;;6.97;5.47;;;;;;;;;;5033128;28;20175;-64
2023/07/23 04:24:16;;;;;;;6.07;5.07;;;;;;;;;;5033220;28;20257;-64
2023/07/23 04:26:42;;;;;;;8.10;5.40;;;;;;;;;;5033498;28;20234;-64
2023/07/23 04:29:08;;;;;;;12.07;5.20;;;;;;;;;;5033003;28;20189;-63
2023/07/23 04:31:36;;;;;;;6.47;4.80;;;;;;;;;;5032995;28;20740;-64
2023/07/23 04:34:03;;;;;;;10.93;5.17;;;;;;;;;;5033159;28;20270;-64
2023/07/23 04:36:28;;;;;;;9.20;5.60;;;;;;;;;;5032900;28;20207;-64
2023/07/23 04:38:54;;;;;;;9.20;5.67;;;;;;;;;;5033006;28;20190;-64
2023/07/23 04:41:20;;;;;;;6.93;4.73;;;;;;;;;;5032877;28;20289;-64
2023/07/23 04:43:46;;;;;;;9.80;5.63;;;;;;;;;;5015290;28;20218;-64
2023/07/23 04:46:12;;;;;;;5.70;4.73;;;;;;;;;;5032821;28;20195;-64
2023/07/23 04:48:38;;;;;;;7.60;5.10;;;;;;;;;;5032893;28;20259;-64
2023/07/23 04:51:05;;;;;;;7.33;4.63;;;;;;;;;;5032942;28;20203;-64
2023/07/23 04:53:31;;;;;;;7.23;5.00;;;;;;;;;;5015986;28;20178;-64
2023/07/23 04:55:58;;;;;;;5.93;4.60;;;;;;;;;;5015267;28;20203;-64
2023/07/23 04:58:25;;;;;;;8.87;5.30;;;;;;;;;;5033309;28;20179;-64
2023/07/23 05:00:51;;;;;;;8.47;5.03;;;;;;;;;;5033322;28;20229;-64
2023/07/23 05:03:18;;;;;;;8.70;5.30;;;;;;;;;;5015331;28;20669;-64
2023/07/23 05:05:49;;;;;;;6.87;4.93;;;;;;;;;;5033045;28;20199;-65
2023/07/23 05:08:15;;;;;;;13.67;5.93;;;;;;;;;;5033517;28;20190;-64
2023/07/23 05:10:41;;;;;;;7.23;6.53;;;;;;;;;;5033478;28;20183;-63
2023/07/23 05:13:07;;;;;;;9.47;7.80;;;;;;;;;;5018913;28;20248;-64
2023/07/23 05:15:33;;;;;;;17.13;12.30;;;;;;;;;;5018414;28;20222;-65
2023/07/23 05:17:59;;;;;;;10.50;8.03;;;;;;;;;;5036881;28;20202;-64
2023/07/23 05:20:25;;;;;;;11.60;8.43;;;;;;;;;;5018994;28;20210;-64
2023/07/23 05:22:51;;;;;;;9.20;7.63;;;;;;;;;;5040983;28;20193;-64
2023/07/23 05:25:17;;;;;;;6.57;5.87;;;;;;;;;;5036340;28;20199;-64
2023/07/23 05:27:43;;;;;;;7.93;5.00;;;;;;;;;;5018676;28;20175;-64
2023/07/23 05:30:09;;;;;;;8.73;4.50;;;;;;;;;;5019317;28;20278;-63
2023/07/23 05:32:35;;;;;;;6.13;4.57;;;;;;;;;;5036659;28;20182;-64
2023/07/23 05:35:01;;;;;;;4.30;3.90;;;;;;;;;;5036265;28;20249;-64
2023/07/23 05:37:27;;;;;;;4.43;3.73;;;;;;;;;;5018789;28;20183;-63
2023/07/23 05:39:53;;;;;;;4.77;4.10;;;;;;;;;;5036639;28;20727;-63
2023/07/23 05:42:22;;;;;;;6.00;3.70;;;;;;;;;;5018876;28;20653;-64
2023/07/23 05:44:48;;;;;;;7.33;3.63;;;;;;;;;;5036277;28;20205;-63
2023/07/23 05:47:14;;;;;;;10.60;3.93;;;;;;;;;;5018677;28;20641;-64
2023/07/23 05:49:40;;;;;;;6.67;3.50;;;;;;;;;;5036400;28;20187;-64
2023/07/23 05:52:06;;;;;;;4.00;3.30;;;;;;;;;;5036422;28;20210;-64
2023/07/23 05:54:32;;;;;;;5.00;3.50;;;;;;;;;;5036443;28;20649;-64
2023/07/23 05:56:59;;;;;;;7.23;3.57;;;;;;;;;;5036607;28;20281;-64
2023/07/23 05:59:25;;;;;;;7.87;3.17;;;;;;;;;;5018577;28;20175;-63
2023/07/23 06:01:51;;;;;;;4.90;2.83;;;;;;;;;;5038839;28;20543;-64
2023/07/23 06:04:17;;;;;;;5.23;3.00;;;;;;;;;;5022833;28;20180;-63
2023/07/23 06:06:43;;;;;;;4.47;3.30;;;;;;;;;;5037640;28;20191;-64
2023/07/23 06:09:09;;;;;;;4.27;3.33;;;;;;;;;;5036881;28;20301;-63
2023/07/23 06:11:35;;;;;;;7.27;3.47;;;;;;;;;;5036376;28;20266;-64
2023/07/23 06:14:02;;;;;;;4.03;2.80;;;;;;;;;;5037269;28;20592;-64
2023/07/23 06:16:28;;;;;;;6.13;3.20;;;;;;;;;;5018034;28;20229;-63
2023/07/23 06:18:54;;;;;;;4.90;3.10;;;;;;;;;;5036207;28;20188;-64
2023/07/23 06:21:20;;;;;;;5.60;3.60;;;;;;;;;;5036296;28;20210;-64
2023/07/23 06:23:46;;;;;;;6.03;3.33;;;;;;;;;;5017723;28;20209;-63
2023/07/23 06:26:11;;;;;;;4.93;3.43;;;;;;;;;;5036950;28;20205;-64
2023/07/23 06:28:37;;;;;;;4.73;3.37;;;;;;;;;;5036659;28;20175;-64
2023/07/23 06:31:03;;;;;;;5.40;3.23;;;;;;;;;;5018052;28;20187;-63
2023/07/23 06:33:29;;;;;;;7.63;3.70;;;;;;;;;;5035518;28;20254;-64
2023/07/23 06:35:55;;;;;;;4.60;3.10;;;;;;;;;;5034947;28;20199;-65
2023/07/23 06:38:21;;;;;;;3.87;2.97;;;;;;;;;;5034763;28;20636;-64
2023/07/23 06:40:48;;;;;;;8.80;3.33;;;;;;;;;;5016928;28;20199;-64
2023/07/23 06:43:16;;;;;;;6.10;3.27;;;;;;;;;;5034825;28;20178;-64
2023/07/23 06:45:43;;;;;;;5.13;3.43;;;;;;;;;;5016727;28;20195;-64
2023/07/23 06:48:09;;;;;;;3.27;2.80;;;;;;;;;;5034773;28;20229;-64
2023/07/23 06:50:35;;;;;;;3.40;3.10;;;;;;;;;;5016747;28;20609;-64
2023/07/23 06:53:01;;;;;;;4.80;3.13;;;;;;;;;;5034375;28;20183;-64
2023/07/23 06:55:27;;;;;;;5.43;3.33;;;;;;;;;;5016693;28;20203;-63
2023/07/23 06:57:52;;;;;;;6.77;3.23;;;;;;;;;;5034311;28;20179;-64
2023/07/23 07:00:18;;;;;;;6.60;3.50;;;;;;;;;;5048558;22;20230;-67
2023/07/23 07:02:44;;;;;;;3.93;3.10;;;;;;;;;;5034410;28;20207;-69
2023/07/23 07:05:10;;;;;;;4.23;3.20;;;;;;;;;;5016878;28;20233;-69
2023/07/23 07:07:37;;;;;;;5.50;3.10;;;;;;;;;;5034263;28;20637;-69
2023/07/23 07:10:04;;;;;;;7.20;3.67;;;;;;;;;;5016447;28;20210;-69
2023/07/23 07:12:30;;;;;;;3.53;3.23;;;;;;;;;;5034073;28;20183;-69
2023/07/23 07:14:56;;;;;;;4.50;3.27;;;;;;;;;;5016764;28;20202;-67
2023/07/23 07:17:22;;;;;;;4.37;3.30;;;;;;;;;;5016761;28;20277;-69
2023/07/23 07:19:48;;;;;;;5.47;3.37;;;;;;;;;;5034062;28;20217;-69
2023/07/23 07:22:14;;;;;;;5.33;3.33;;;;;;;;;;5016252;28;20179;-67
2023/07/23 07:24:40;;;;;;;9.07;4.20;;;;;;;;;;5016562;28;20186;-69
2023/07/23 07:27:09;;;;;;;8.00;4.00;;;;;;;;;;5016416;28;20318;-70
2023/07/23 07:29:35;;;;;;;4.87;3.83;;;;;;;;;;5033947;28;20186;-69
2023/07/23 07:32:01;;;;;;;4.60;3.70;;;;;;;;;;5034101;28;20235;-70
2023/07/23 07:34:27;;;;;;;6.07;3.93;;;;;;;;;;5033512;28;20214;-70
2023/07/23 07:36:53;;;;;;;8.40;4.07;;;;;;;;;;5033720;28;20171;-67
2023/07/23 07:39:19;;;;;;;4.37;3.63;;;;;;;;;;5033494;28;20199;-68
2023/07/23 07:41:45;;;;;;;3.60;3.30;;;;;;;;;;5015828;28;20207;-70
2023/07/23 07:44:11;;;;;;;5.87;4.03;;;;;;;;;;5033698;28;20194;-68
2023/07/23 07:46:37;;;;;;;8.67;4.10;;;;;;;;;;5016297;28;20183;-70
2023/07/23 07:49:04;;;;;;;8.30;4.33;;;;;;;;;;5033659;28;20195;-66
2023/07/23 07:51:30;;;;;;;5.77;3.93;;;;;;;;;;5015996;28;20324;-67
2023/07/23 07:53:57;;;;;;;5.20;3.33;;;;;;;;;;5033496;28;20237;-68
2023/07/23 07:56:23;;;;;;;5.93;3.60;;;;;;;;;;5015855;28;20200;-67
2023/07/23 07:58:49;;;;;;;7.27;4.10;;;;;;;;;;5033183;28;20218;-67
2023/07/23 08:01:15;;;;;;;6.03;2.97;;;;;;;;;;5033590;28;20249;-68
2023/07/23 08:03:41;;;;;;;4.27;3.73;;;;;;;;;;5033951;28;20269;-66
2023/07/23 08:06:07;;;;;;;6.20;3.53;;;;;;;;;;5033568;28;20593;-67
2023/07/23 08:08:34;;;;;;;5.30;3.50;;;;;;;;;;5015632;28;20230;-67
2023/07/23 08:11:01;;;;;;;5.40;3.50;;;;;;;;;;5034146;28;20250;-68
2023/07/23 08:13:28;;;;;;;7.37;5.57;;;;;;;;;;5015744;28;20270;-68
2023/07/23 08:15:54;;;;;;;5.20;4.50;;;;;;;;;;5033389;28;20688;-67
2023/07/23 08:18:21;;;;;;;6.20;4.00;;;;;;;;;;5033247;28;20535;-68
2023/07/23 08:20:47;;;;;;;6.50;4.10;;;;;;;;;;5033205;28;20581;-68
2023/07/23 08:23:13;;;;;;;3.97;3.57;;;;;;;;;;5015844;28;20615;-68
2023/07/23 08:25:40;;;;;;;5.33;3.53;;;;;;;;;;5033434;28;20199;-68
2023/07/23 08:28:07;;;;;;;4.53;3.73;;;;;;;;;;5033470;28;20199;-68
2023/07/23 08:30:33;;;;;;;8.03;3.80;;;;;;;;;;5015589;28;20674;-68
2023/07/23 08:33:00;;;;;;;7.80;4.17;;;;;;;;;;5033173;28;20642;-68
2023/07/23 08:35:27;;;;;;;5.57;4.07;;;;;;;;;;5033129;28;20179;-68
2023/07/23 08:37:53;;;;;;;3.70;3.37;;;;;;;;;;5015262;28;20237;-68
2023/07/23 08:40:19;;;;;;;7.40;4.30;;;;;;;;;;5015221;28;20206;-68
2023/07/23 08:42:55;;;;;;;5.33;4.10;;;;;;;;;;5015284;28;20187;-68
2023/07/23 08:45:30;;;;;;;4.20;3.80;;;;;;;;;;5015717;28;20182;-68
2023/07/23 08:48:23;;;;;;;4.83;4.07;;;;;;;;;;5037312;28;20189;-68
2023/07/23 08:50:50;;;;;;;4.50;3.70;;;;;;;;;;5015891;28;20286;-68
2023/07/23 08:53:17;;;;;;;5.43;3.73;;;;;;;;;;5019203;28;20191;-69
2023/07/23 08:55:44;;;;;;;5.23;3.90;;;;;;;;;;5037034;28;20183;-68
2023/07/23 08:58:13;;;;;;;6.13;3.67;;;;;;;;;;5037086;28;20233;-68
2023/07/23 09:00:42;;;;;;;4.97;3.80;;;;;;;;;;5036664;28;20219;-68
2023/07/23 09:03:09;;;;;;;4.07;3.67;;;;;;;;;;5019129;28;20696;-68
2023/07/23 09:05:35;;;;;;;4.30;3.87;;;;;;;;;;5037150;28;20175;-68
2023/07/23 09:08:02;;;;;;;7.67;4.00;;;;;;;;;;5036588;28;20212;-68
2023/07/23 09:10:28;;;;;;;4.50;3.47;;;;;;;;;;5036563;28;20620;-68
2023/07/23 09:12:54;;;;;;;4.90;3.40;;;;;;;;;;5036918;28;20183;-69
2023/07/23 09:15:20;;;;;;;7.53;3.83;;;;;;;;;;5018738;28;20237;-68
2023/07/23 09:17:52;;;;;;;6.83;3.67;;;;;;;;;;5036959;28;20213;-68
2023/07/23 09:20:18;;;;;;;3.77;3.33;;;;;;;;;;5018591;28;20211;-68
2023/07/23 09:22:45;;;;;;;4.47;3.33;;;;;;;;;;5036342;28;20207;-68
2023/07/23 09:25:11;;;;;;;4.50;3.30;;;;;;;;;;5020250;28;20175;-68
2023/07/23 09:27:37;;;;;;;5.30;3.23;;;;;;;;;;5019965;28;20190;-68
2023/07/23 09:30:04;;;;;;;4.87;3.27;;;;;;;;;;5040233;28;20203;-68
2023/07/23 09:32:30;;;;;;;4.80;3.70;;;;;;;;;;5039380;28;20241;-68
2023/07/23 09:34:57;;;;;;;3.20;2.90;;;;;;;;;;5039115;28;20187;-68
2023/07/23 09:37:23;;;;;;;4.27;3.37;;;;;;;;;;5037044;28;20187;-68
2023/07/23 09:39:54;;;;;;;4.00;3.00;;;;;;;;;;5036140;28;20234;-68
2023/07/23 09:42:23;;;;;;;3.77;3.17;;;;;;;;;;5018379;28;20180;-68
2023/07/23 09:44:49;;;;;;;2.80;2.60;;;;;;;;;;5018253;28;20179;-68
2023/07/23 09:47:15;;;;;;;3.07;2.83;;;;;;;;;;5036164;28;20205;-68
2023/07/23 09:49:42;;;;;;;2.70;2.50;;;;;;;;;;5036068;28;20567;-68
2023/07/23 09:52:09;;;;;;;4.33;2.90;;;;;;;;;;5017894;28;20557;-68
2023/07/23 09:54:35;;;;;;;3.17;2.80;;;;;;;;;;5035778;28;20201;-68
2023/07/23 09:57:02;;;;;;;3.00;2.80;;;;;;;;;;5017697;28;20219;-68
2023/07/23 09:59:28;;;;;;;4.97;2.93;;;;;;;;;;5035377;28;20776;-68
2023/07/23 10:01:55;;;;;;;2.53;2.33;;;;;;;;;;5035603;28;20262;-68
2023/07/23 10:04:21;;;;;;;3.00;2.70;;;;;;;;;;5017918;28;20183;-68
2023/07/23 10:06:48;;;;;;;2.57;2.37;;;;;;;;;;5035524;28;20186;-67
2023/07/23 10:09:15;;;;;;;2.90;2.60;;;;;;;;;;5017547;28;20230;-68
2023/07/23 10:11:41;;;;;;;3.10;2.40;;;;;;;;;;5035155;28;20278;-68
2023/07/23 10:14:07;;;;;;;4.33;2.83;;;;;;;;;;5017355;28;20640;-68
2023/07/23 10:16:35;;;;;;;2.77;2.57;;;;;;;;;;5035109;28;20640;-67
2023/07/23 10:19:04;;;;;;;2.83;2.57;;;;;;;;;;5035175;28;20194;-68
2023/07/23 10:21:31;;;;;;;2.63;2.40;;;;;;;;;;5017110;28;20225;-68
2023/07/23 10:23:57;;;;;;;4.30;2.60;;;;;;;;;;5017324;28;20179;-68
2023/07/23 10:26:24;;;;;;;5.00;2.30;;;;;;;;;;5034999;28;20184;-68
2023/07/23 10:29:11;;;;;;;5.03;2.40;;;;;;;;;;5035133;28;20203;-68
2023/07/23 10:31:38;;;;;;;3.10;2.40;;;;;;;;;;5017000;28;20277;-68
2023/07/23 10:34:28;;;;;;;2.30;2.10;;;;;;;;;;5017161;28;20183;-68
2023/07/23 10:37:10;;;;;;;2.87;2.00;;;;;;;;;;5016702;28;20194;-68
2023/07/23 10:39:39;;;;;;;2.30;2.10;;;;;;;;;;5034302;28;20210;-69
2023/07/23 10:42:05;;;;;;;2.43;2.10;;;;;;;;;;5034882;28;20222;-67
2023/07/23 10:44:31;;;;;;;2.57;1.97;;;;;;;;;;5016668;28;20683;-67
2023/07/23 10:46:58;;;;;;;4.40;2.23;;;;;;;;;;5034940;28;20202;-68
2023/07/23 10:49:27;;;;;;;2.63;1.80;;;;;;;;;;5016747;28;20204;-67
2023/07/23 10:51:53;;;;;;;4.07;2.10;;;;;;;;;;5034824;28;20183;-67
2023/07/23 10:54:20;;;;;;;2.47;2.00;;;;;;;;;;5034266;28;20250;-67
2023/07/23 10:56:48;;;;;;;2.00;1.80;;;;;;;;;;5016586;28;20244;-67
2023/07/23 10:59:15;;;;;;;2.53;2.00;;;;;;;;;;5034047;28;20215;-67
2023/07/23 11:01:42;;;;;;;2.23;1.93;;;;;;;;;;5034160;28;20203;-67
2023/07/23 11:04:15;;;;;;;2.03;1.80;;;;;;;;;;5016540;28;20648;-67
2023/07/23 11:06:58;;;;;;;3.30;1.97;;;;;;;;;;5016467;28;20229;-67
2023/07/23 11:09:26;;;;;;;2.00;1.70;;;;;;;;;;5033594;28;20261;-68
2023/07/23 11:11:52;;;;;;;2.17;1.97;;;;;;;;;;5034481;28;20246;-68
2023/07/23 11:14:22;;;;;;;1.90;1.80;;;;;;;;;;5033986;28;20265;-68
2023/07/23 11:16:49;;;;;;;3.80;2.00;;;;;;;;;;5016084;28;20179;-68
2023/07/23 11:19:16;;;;;;;3.60;2.30;;;;;;;;;;5016478;28;20576;-68
2023/07/23 11:21:46;;;;;;;2.83;2.10;;;;;;;;;;5016006;28;20206;-68
2023/07/23 11:24:12;;;;;;;2.33;2.13;;;;;;;;;;5016347;28;20183;-68
2023/07/23 11:26:39;;;;;;;2.13;1.93;;;;;;;;;;5033923;28;20225;-68
2023/07/23 11:29:05;;;;;;;3.30;2.73;;;;;;;;;;5033760;28;20191;-68
2023/07/23 11:31:31;;;;;;;2.30;2.20;;;;;;;;;;5034043;28;20182;-67
2023/07/23 11:34:00;;;;;;;2.70;2.30;;;;;;;;;;5016240;28;20298;-68
2023/07/23 11:36:26;;;;;;;3.53;2.33;;;;;;;;;;5034386;28;20171;-68
2023/07/23 11:38:53;;;;;;;2.87;2.23;;;;;;;;;;5018349;28;20245;-68
2023/07/23 11:41:19;;;;;;;2.70;1.90;;;;;;;;;;5016165;28;20218;-68
2023/07/23 11:43:45;;;;;;;2.33;2.00;;;;;;;;;;5033827;28;20176;-68
2023/07/23 11:46:17;;;;;;;2.70;2.27;;;;;;;;;;5034132;28;20655;-68
2023/07/23 11:48:43;;;;;;;2.43;2.23;;;;;;;;;;5034245;28;20694;-68
2023/07/23 11:51:09;;;;;;;2.27;2.07;;;;;;;;;;5015888;28;20187;-68
2023/07/23 11:53:37;;;;;;;2.67;2.00;;;;;;;;;;5034748;28;20175;-68
2023/07/23 11:56:07;;;;;;;2.23;1.90;;;;;;;;;;5033977;28;20186;-68
2023/07/23 11:58:34;;;;;;;2.03;1.83;;;;;;;;;;5033487;28;20210;-68
2023/07/23 12:01:00;;;;;;;2.50;1.93;;;;;;;;;;5015831;28;20206;-68
2023/07/23 12:03:26;;;;;;;5.23;2.50;;;;;;;;;;5033566;28;20249;-68
2023/07/23 12:05:53;;;;;;;2.10;1.90;;;;;;;;;;5033073;28;20246;-68
2023/07/23 12:08:19;;;;;;;2.80;2.20;;;;;;;;;;5032994;28;20182;-68
2023/07/23 12:10:45;;;;;;;3.03;2.10;;;;;;;;;;5015599;28;20273;-67
2023/07/23 12:13:11;;;;;;;2.03;1.90;;;;;;;;;;5033221;28;20223;-68
2023/07/23 12:15:38;;;;;;;3.70;2.10;;;;;;;;;;5033233;28;20601;-68
2023/07/23 12:18:03;;;;;;;2.80;2.20;;;;;;;;;;5015333;28;20183;-69
2023/07/23 12:20:29;;;;;;;3.57;2.27;;;;;;;;;;5032543;28;20261;-68
2023/07/23 12:22:57;;;;;;;5.47;2.23;;;;;;;;;;5015502;28;20214;-68
2023/07/23 12:25:24;;;;;;;4.70;2.73;;;;;;;;;;5015485;28;20625;-68
2023/07/23 12:27:50;;;;;;;3.43;2.60;;;;;;;;;;5033019;28;20244;-69
2023/07/23 12:30:17;;;;;;;2.40;2.30;;;;;;;;;;5015163;28;20707;-69
2023/07/23 12:32:44;;;;;;;5.70;2.50;;;;;;;;;;5035314;28;20183;-69
2023/07/23 12:35:10;;;;;;;4.00;2.53;;;;;;;;;;5036357;28;20190;-71
2023/07/23 12:37:36;;;;;;;2.90;2.40;;;;;;;;;;5015453;28;20630;-69
2023/07/23 12:40:06;;;;;;;2.70;2.50;;;;;;;;;;5033021;28;20210;-69
2023/07/23 12:42:32;;;;;;;2.50;2.30;;;;;;;;;;5033457;28;20253;-69
2023/07/23 12:44:58;;;;;;;2.70;2.50;;;;;;;;;;5034073;28;20179;-68
2023/07/23 12:47:26;;;;;;;3.37;2.20;;;;;;;;;;5033695;28;20239;-69
2023/07/23 12:49:52;;;;;;;2.80;2.50;;;;;;;;;;5016026;28;20257;-69
2023/07/23 12:52:21;;;;;;;2.37;2.20;;;;;;;;;;5035151;28;20225;-68
2023/07/23 12:54:47;;;;;;;2.70;2.50;;;;;;;;;;5035192;28;20554;-68
2023/07/23 12:57:13;;;;;;;2.40;2.20;;;;;;;;;;5034397;28;20263;-68
2023/07/23 12:59:39;;;;;;;3.47;2.40;;;;;;;;;;5033063;28;20280;-69
2023/07/23 13:02:06;;;;;;;2.57;2.10;;;;;;;;;;5015634;28;20175;-70
2023/07/23 13:04:32;;;;;;;2.27;2.07;;;;;;;;;;5033263;28;20175;-69
2023/07/23 13:06:58;;;;;;;2.73;2.53;;;;;;;;;;5033760;28;20175;-69
2023/07/23 13:09:24;;;;;;;2.23;2.13;;;;;;;;;;5034142;28;20191;-69
2023/07/23 13:11:50;;;;;;;3.10;2.50;;;;;;;;;;5033590;28;20237;-69
2023/07/23 13:14:16;;;;;;;3.00;2.30;;;;;;;;;;5015526;28;20194;-69
2023/07/23 13:16:42;;;;;;;4.03;2.33;;;;;;;;;;5033501;28;20700;-69
2023/07/23 13:19:08;;;;;;;2.50;2.30;;;;;;;;;;5033794;28;20207;-69
2023/07/23 13:21:34;;;;;;;2.77;2.50;;;;;;;;;;5015525;28;20238;-69
2023/07/23 13:24:00;;;;;;;2.63;2.17;;;;;;;;;;5015316;28;20183;-69
2023/07/23 13:26:26;;;;;;;2.33;2.13;;;;;;;;;;5033276;28;20177;-69
2023/07/23 13:28:52;;;;;;;2.50;2.30;;;;;;;;;;5017674;28;20234;-69
2023/07/23 13:31:19;;;;;;;2.90;2.57;;;;;;;;;;5033087;28;20266;-69
2023/07/23 13:33:45;;;;;;;2.60;2.40;;;;;;;;;;5036333;28;20538;-69
2023/07/23 13:36:11;;;;;;;3.13;2.83;;;;;;;;;;5018596;28;20186;-69
2023/07/23 13:38:37;;;;;;;3.20;2.90;;;;;;;;;;5036197;28;20236;-69
2023/07/23 13:41:03;;;;;;;5.53;3.03;;;;;;;;;;5036520;28;20546;-69
2023/07/23 13:43:29;;;;;;;2.50;2.23;;;;;;;;;;5036354;28;20186;-69
2023/07/23 13:45:55;;;;;;;3.00;2.73;;;;;;;;;;5018299;28;20265;-70
2023/07/23 13:48:21;;;;;;;3.43;3.13;;;;;;;;;;5036678;28;20182;-69
2023/07/23 13:50:48;;;;;;;3.40;3.10;;;;;;;;;;5018212;28;20605;-69
2023/07/23 13:53:13;;;;;;;3.27;2.97;;;;;;;;;;5036106;28;20191;-69
2023/07/23 13:55:39;;;;;;;3.77;3.40;;;;;;;;;;5035792;28;20241;-69
2023/07/23 13:58:05;;;;;;;3.20;2.93;;;;;;;;;;5035979;28;20235;-69
2023/07/23 14:00:31;;;;;;;3.27;2.97;;;;;;;;;;5035498;28;20226;-69
2023/07/23 14:02:57;;;;;;;4.93;3.10;;;;;;;;;;5035981;28;20205;-69
2023/07/23 14:05:28;;;;;;;4.33;3.13;;;;;;;;;;5035944;28;20607;-69
2023/07/23 14:07:54;;;;;;;3.97;2.80;;;;;;;;;;5017959;28;20171;-69
2023/07/23 14:10:20;;;;;;;3.47;3.17;;;;;;;;;;5035352;28;20290;-69
2023/07/23 14:12:46;;;;;;;3.23;2.97;;;;;;;;;;5035955;28;20186;-69
2023/07/23 14:15:12;;;;;;;3.53;3.23;;;;;;;;;;5036487;28;20580;-69
2023/07/23 14:17:38;;;;;;;4.00;3.37;;;;;;;;;;5036295;28;20516;-69
2023/07/23 14:20:04;;;;;;;4.53;3.10;;;;;;;;;;5036014;28;20563;-69
2023/07/23 14:22:31;;;;;;;3.50;3.20;;;;;;;;;;5018127;28;20250;-69
2023/07/23 14:24:57;;;;;;;3.50;3.20;;;;;;;;;;5021849;28;20640;-69
2023/07/23 14:27:23;;;;;;;3.53;3.20;;;;;;;;;;5036458;28;20186;-69
2023/07/23 14:29:49;;;;;;;4.33;3.50;;;;;;;;;;5017390;28;20664;-69
2023/07/23 14:32:15;;;;;;;3.93;3.63;;;;;;;;;;5035083;28;20175;-68
2023/07/23 14:34:41;;;;;;;3.57;3.27;;;;;;;;;;5035345;28;20187;-69
2023/07/23 14:37:09;;;;;;;3.80;2.83;;;;;;;;;;5034977;28;20171;-68